sensor_id;sensor_type;location;lat;lon;timestamp;pressure;altitude;pressure_sealevel;temperature;humidity
47706;BME280;33471;52.104;1.318;2023-02-19T00:01:15;101617.22;;;9.23;57.24
47706;BME280;33471;52.104;1.318;2023-02-19T00:03:47;101622.74;;;10.24;54.90
47706;BME280;33471;52.104;1.318;2023-02-19T00:06:16;101627.74;;;9.91;55.57
47706;BME280;33471;52.104;1.318;2023-02-19T00:08:43;101627.29;;;10.14;54.79
47706;BME280;33471;52.104;1.318;2023-02-19T00:11:13;101628.86;;;10.26;54.12
47706;BME280;33471;52.104;1.318;2023-02-19T00:13:43;101631.63;;;10.00;55.22
47706;BME280;33471;52.104;1.318;2023-02-19T00:16:15;101625.06;;;10.13;54.23
47706;BME280;33471;52.104;1.318;2023-02-19T00:18:42;101626.16;;;10.51;53.46
47706;BME280;33471;52.104;1.318;2023-02-19T00:21:10;101620.99;;;10.61;53.54
47706;BME280;33471;52.104;1.318;2023-02-19T00:23:38;101635.41;;;10.42;53.95
47706;BME280;33471;52.104;1.318;2023-02-19T00:26:08;101632.42;;;10.63;53.41
47706;BME280;33471;52.104;1.318;2023-02-19T00:28:36;101635.39;;;9.68;55.06
47706;BME280;33471;52.104;1.318;2023-02-19T00:31:05;101634.62;;;9.63;55.93
47706;BME280;33471;52.104;1.318;2023-02-19T00:33:32;101629.23;;;9.54;56.32
47706;BME280;33471;52.104;1.318;2023-02-19T00:36:00;101635.56;;;9.78;55.55
47706;BME280;33471;52.104;1.318;2023-02-19T00:38:27;101635.25;;;10.13;54.82
47706;BME280;33471;52.104;1.318;2023-02-19T00:40:54;101640.58;;;9.51;55.84
47706;BME280;33471;52.104;1.318;2023-02-19T00:43:21;101644.96;;;9.71;56.61
47706;BME280;33471;52.104;1.318;2023-02-19T00:45:48;101645.76;;;9.49;56.38
47706;BME280;33471;52.104;1.318;2023-02-19T00:48:15;101645.37;;;9.45;56.44
47706;BME280;33471;52.104;1.318;2023-02-19T00:50:42;101648.72;;;9.88;55.28
47706;BME280;33471;52.104;1.318;2023-02-19T00:53:09;101652.79;;;9.15;56.82
47706;BME280;33471;52.104;1.318;2023-02-19T00:55:37;101659.39;;;9.64;56.48
47706;BME280;33471;52.104;1.318;2023-02-19T00:58:04;101655.60;;;9.62;55.89
47706;BME280;33471;52.104;1.318;2023-02-19T01:00:31;101659.86;;;9.77;57.05
47706;BME280;33471;52.104;1.318;2023-02-19T01:02:58;101672.28;;;9.76;56.69
47706;BME280;33471;52.104;1.318;2023-02-19T01:05:25;101673.13;;;9.29;57.01
47706;BME280;33471;52.104;1.318;2023-02-19T01:07:52;101675.43;;;10.00;55.01
47706;BME280;33471;52.104;1.318;2023-02-19T01:10:19;101679.93;;;9.68;55.51
47706;BME280;33471;52.104;1.318;2023-02-19T01:12:46;101678.63;;;9.73;55.72
47706;BME280;33471;52.104;1.318;2023-02-19T01:15:13;101679.90;;;9.99;55.28
47706;BME280;33471;52.104;1.318;2023-02-19T01:17:40;101679.96;;;9.15;56.62
47706;BME280;33471;52.104;1.318;2023-02-19T01:20:08;101680.07;;;9.01;58.22
47706;BME280;33471;52.104;1.318;2023-02-19T01:22:36;101678.05;;;9.82;55.40
47706;BME280;33471;52.104;1.318;2023-02-19T01:25:03;101677.88;;;9.61;57.33
47706;BME280;33471;52.104;1.318;2023-02-19T01:27:30;101672.39;;;9.85;56.57
47706;BME280;33471;52.104;1.318;2023-02-19T01:29:57;101670.30;;;10.31;54.67
47706;BME280;33471;52.104;1.318;2023-02-19T01:32:24;101670.21;;;10.13;53.93
47706;BME280;33471;52.104;1.318;2023-02-19T01:34:52;101676.64;;;9.78;56.52
47706;BME280;33471;52.104;1.318;2023-02-19T01:37:18;101677.19;;;9.58;56.89
47706;BME280;33471;52.104;1.318;2023-02-19T01:39:46;101681.34;;;9.50;56.32
47706;BME280;33471;52.104;1.318;2023-02-19T01:42:15;101685.54;;;9.70;55.01
47706;BME280;33471;52.104;1.318;2023-02-19T01:45:22;101686.71;;;9.72;56.78
47706;BME280;33471;52.104;1.318;2023-02-19T01:47:55;101693.01;;;9.75;55.40
47706;BME280;33471;52.104;1.318;2023-02-19T01:50:26;101687.01;;;9.92;54.68
47706;BME280;33471;52.104;1.318;2023-02-19T01:52:54;101684.55;;;10.48;53.87
47706;BME280;33471;52.104;1.318;2023-02-19T01:55:22;101686.37;;;9.64;55.02
47706;BME280;33471;52.104;1.318;2023-02-19T01:57:52;101683.16;;;9.70;55.34
47706;BME280;33471;52.104;1.318;2023-02-19T02:00:21;101686.12;;;9.87;54.69
47706;BME280;33471;52.104;1.318;2023-02-19T02:02:51;101685.31;;;9.45;55.30
47706;BME280;33471;52.104;1.318;2023-02-19T02:05:27;101690.65;;;9.99;54.84
47706;BME280;33471;52.104;1.318;2023-02-19T02:07:56;101690.56;;;9.30;55.07
47706;BME280;33471;52.104;1.318;2023-02-19T02:10:25;101691.88;;;10.81;51.90
47706;BME280;33471;52.104;1.318;2023-02-19T02:12:56;101700.76;;;9.64;54.47
47706;BME280;33471;52.104;1.318;2023-02-19T02:15:28;101702.60;;;9.63;54.05
47706;BME280;33471;52.104;1.318;2023-02-19T02:18:07;101703.67;;;9.32;55.85
47706;BME280;33471;52.104;1.318;2023-02-19T02:20:56;101711.50;;;9.01;55.65
47706;BME280;33471;52.104;1.318;2023-02-19T02:23:39;101720.93;;;8.99;56.63
47706;BME280;33471;52.104;1.318;2023-02-19T02:26:14;101724.06;;;9.80;54.21
47706;BME280;33471;52.104;1.318;2023-02-19T02:29:44;101736.46;;;10.38;53.47
47706;BME280;33471;52.104;1.318;2023-02-19T02:32:15;101734.64;;;8.59;55.49
47706;BME280;33471;52.104;1.318;2023-02-19T02:34:50;101743.87;;;10.00;52.92
47706;BME280;33471;52.104;1.318;2023-02-19T02:37:20;101742.48;;;8.65;56.80
47706;BME280;33471;52.104;1.318;2023-02-19T02:39:48;101742.82;;;9.17;55.40
47706;BME280;33471;52.104;1.318;2023-02-19T02:42:16;101748.59;;;8.30;57.57
47706;BME280;33471;52.104;1.318;2023-02-19T02:44:44;101742.47;;;9.32;55.04
47706;BME280;33471;52.104;1.318;2023-02-19T02:47:11;101745.52;;;9.38;54.12
47706;BME280;33471;52.104;1.318;2023-02-19T02:49:39;101755.10;;;9.23;55.15
47706;BME280;33471;52.104;1.318;2023-02-19T02:52:08;101752.11;;;9.28;55.08
47706;BME280;33471;52.104;1.318;2023-02-19T02:54:35;101756.71;;;8.99;55.67
47706;BME280;33471;52.104;1.318;2023-02-19T02:57:03;101758.00;;;9.23;55.47
47706;BME280;33471;52.104;1.318;2023-02-19T02:59:36;101756.62;;;8.54;56.98
47706;BME280;33471;52.104;1.318;2023-02-19T03:02:06;101758.77;;;8.30;58.46
47706;BME280;33471;52.104;1.318;2023-02-19T03:04:40;101762.05;;;8.28;57.33
47706;BME280;33471;52.104;1.318;2023-02-19T03:07:12;101761.60;;;9.28;54.52
47706;BME280;33471;52.104;1.318;2023-02-19T03:09:41;101761.37;;;9.01;54.72
47706;BME280;33471;52.104;1.318;2023-02-19T03:12:13;101765.70;;;8.80;55.22
47706;BME280;33471;52.104;1.318;2023-02-19T03:14:44;101766.53;;;9.46;53.69
47706;BME280;33471;52.104;1.318;2023-02-19T03:17:17;101766.93;;;9.20;54.14
47706;BME280;33471;52.104;1.318;2023-02-19T03:19:47;101768.61;;;10.20;52.04
47706;BME280;33471;52.104;1.318;2023-02-19T03:22:18;101769.59;;;9.89;52.39
47706;BME280;33471;52.104;1.318;2023-02-19T03:24:49;101768.78;;;9.88;52.39
47706;BME280;33471;52.104;1.318;2023-02-19T03:27:19;101774.32;;;9.94;52.03
47706;BME280;33471;52.104;1.318;2023-02-19T03:29:49;101774.88;;;9.93;52.58
47706;BME280;33471;52.104;1.318;2023-02-19T03:32:20;101777.10;;;10.43;50.74
47706;BME280;33471;52.104;1.318;2023-02-19T03:34:54;101781.70;;;10.22;52.01
47706;BME280;33471;52.104;1.318;2023-02-19T03:37:27;101783.22;;;9.80;53.01
47706;BME280;33471;52.104;1.318;2023-02-19T03:39:55;101778.26;;;9.84;54.31
47706;BME280;33471;52.104;1.318;2023-02-19T03:42:34;101781.96;;;9.22;54.17
47706;BME280;33471;52.104;1.318;2023-02-19T03:45:16;101787.88;;;9.18;54.61
47706;BME280;33471;52.104;1.318;2023-02-19T03:47:51;101788.20;;;9.26;54.26
47706;BME280;33471;52.104;1.318;2023-02-19T03:50:23;101794.86;;;9.68;53.29
47706;BME280;33471;52.104;1.318;2023-02-19T03:52:58;101796.55;;;9.95;53.08
47706;BME280;33471;52.104;1.318;2023-02-19T03:55:35;101800.84;;;9.38;53.88
47706;BME280;33471;52.104;1.318;2023-02-19T03:58:10;101805.17;;;8.82;54.92
47706;BME280;33471;52.104;1.318;2023-02-19T04:00:47;101806.69;;;9.55;54.03
47706;BME280;33471;52.104;1.318;2023-02-19T04:03:21;101809.42;;;9.30;54.62
47706;BME280;33471;52.104;1.318;2023-02-19T04:05:57;101808.08;;;9.03;55.25
47706;BME280;33471;52.104;1.318;2023-02-19T04:08:28;101815.59;;;8.96;55.77
47706;BME280;33471;52.104;1.318;2023-02-19T04:10:58;101815.99;;;8.88;55.04
47706;BME280;33471;52.104;1.318;2023-02-19T04:13:29;101816.89;;;9.06;54.12
47706;BME280;33471;52.104;1.318;2023-02-19T04:16:03;101817.30;;;9.51;52.95
47706;BME280;33471;52.104;1.318;2023-02-19T04:18:37;101821.11;;;8.97;54.22
47706;BME280;33471;52.104;1.318;2023-02-19T04:21:07;101823.36;;;9.63;52.56
47706;BME280;33471;52.104;1.318;2023-02-19T04:23:39;101831.05;;;9.76;52.57
47706;BME280;33471;52.104;1.318;2023-02-19T04:26:08;101837.07;;;9.91;51.56
47706;BME280;33471;52.104;1.318;2023-02-19T04:28:37;101840.61;;;10.26;51.21
47706;BME280;33471;52.104;1.318;2023-02-19T04:31:05;101844.49;;;10.17;51.46
47706;BME280;33471;52.104;1.318;2023-02-19T04:33:32;101850.47;;;8.96;52.96
47706;BME280;33471;52.104;1.318;2023-02-19T04:35:59;101853.95;;;10.19;51.24
47706;BME280;33471;52.104;1.318;2023-02-19T04:38:26;101859.46;;;8.55;54.30
47706;BME280;33471;52.104;1.318;2023-02-19T04:40:53;101861.99;;;9.09;54.37
47706;BME280;33471;52.104;1.318;2023-02-19T04:43:21;101863.98;;;8.53;54.50
47706;BME280;33471;52.104;1.318;2023-02-19T04:45:48;101873.40;;;9.55;52.52
47706;BME280;33471;52.104;1.318;2023-02-19T04:48:15;101874.98;;;9.63;52.13
47706;BME280;33471;52.104;1.318;2023-02-19T04:50:42;101874.98;;;9.76;52.50
47706;BME280;33471;52.104;1.318;2023-02-19T04:53:09;101872.30;;;9.93;50.76
47706;BME280;33471;52.104;1.318;2023-02-19T04:55:37;101880.84;;;10.47;49.89
47706;BME280;33471;52.104;1.318;2023-02-19T04:58:04;101882.21;;;10.09;51.36
47706;BME280;33471;52.104;1.318;2023-02-19T05:00:32;101893.87;;;9.28;52.72
47706;BME280;33471;52.104;1.318;2023-02-19T05:02:59;101897.23;;;9.63;51.87
47706;BME280;33471;52.104;1.318;2023-02-19T05:05:27;101901.02;;;9.07;53.37
47706;BME280;33471;52.104;1.318;2023-02-19T05:07:54;101904.13;;;8.74;55.05
47706;BME280;33471;52.104;1.318;2023-02-19T05:10:22;101903.35;;;8.99;54.44
47706;BME280;33471;52.104;1.318;2023-02-19T05:12:48;101910.23;;;8.90;54.69
47706;BME280;33471;52.104;1.318;2023-02-19T05:15:15;101916.92;;;9.68;52.30
47706;BME280;33471;52.104;1.318;2023-02-19T05:17:42;101913.36;;;9.71;51.83
47706;BME280;33471;52.104;1.318;2023-02-19T05:20:10;101918.58;;;9.09;53.08
47706;BME280;33471;52.104;1.318;2023-02-19T05:22:37;101918.57;;;9.23;52.99
47706;BME280;33471;52.104;1.318;2023-02-19T05:25:05;101920.09;;;9.31;53.40
47706;BME280;33471;52.104;1.318;2023-02-19T05:27:32;101922.99;;;9.11;54.40
47706;BME280;33471;52.104;1.318;2023-02-19T05:29:59;101925.56;;;9.15;54.36
47706;BME280;33471;52.104;1.318;2023-02-19T05:32:26;101923.74;;;8.87;53.82
47706;BME280;33471;52.104;1.318;2023-02-19T05:34:53;101934.29;;;8.45;55.08
47706;BME280;33471;52.104;1.318;2023-02-19T05:37:20;101934.24;;;8.99;54.76
47706;BME280;33471;52.104;1.318;2023-02-19T05:39:48;101934.24;;;9.45;53.52
47706;BME280;33471;52.104;1.318;2023-02-19T05:42:15;101938.86;;;8.80;55.32
47706;BME280;33471;52.104;1.318;2023-02-19T05:44:42;101939.74;;;8.89;55.35
47706;BME280;33471;52.104;1.318;2023-02-19T05:47:09;101941.16;;;8.36;56.58
47706;BME280;33471;52.104;1.318;2023-02-19T05:49:36;101947.20;;;7.89;57.61
47706;BME280;33471;52.104;1.318;2023-02-19T05:52:04;101948.39;;;8.68;55.78
47706;BME280;33471;52.104;1.318;2023-02-19T05:54:31;101942.29;;;8.60;55.90
47706;BME280;33471;52.104;1.318;2023-02-19T05:56:58;101945.35;;;8.89;54.39
47706;BME280;33471;52.104;1.318;2023-02-19T05:59:26;101950.17;;;9.48;53.42
47706;BME280;33471;52.104;1.318;2023-02-19T06:01:54;101951.34;;;8.96;54.65
47706;BME280;33471;52.104;1.318;2023-02-19T06:04:22;101949.29;;;8.45;56.45
47706;BME280;33471;52.104;1.318;2023-02-19T06:06:49;101949.49;;;8.80;55.56
47706;BME280;33471;52.104;1.318;2023-02-19T06:09:16;101952.14;;;8.77;55.75
47706;BME280;33471;52.104;1.318;2023-02-19T06:11:44;101958.66;;;9.70;53.59
47706;BME280;33471;52.104;1.318;2023-02-19T06:14:12;101958.15;;;8.74;54.61
47706;BME280;33471;52.104;1.318;2023-02-19T06:16:40;101963.01;;;9.61;53.76
47706;BME280;33471;52.104;1.318;2023-02-19T06:19:09;101964.74;;;8.57;55.92
47706;BME280;33471;52.104;1.318;2023-02-19T06:21:36;101964.96;;;8.58;56.57
47706;BME280;33471;52.104;1.318;2023-02-19T06:24:05;101966.16;;;9.20;53.95
47706;BME280;33471;52.104;1.318;2023-02-19T06:26:33;101968.67;;;8.27;56.72
47706;BME280;33471;52.104;1.318;2023-02-19T06:29:00;101979.14;;;7.53;57.88
47706;BME280;33471;52.104;1.318;2023-02-19T06:31:27;101982.63;;;8.07;57.10
47706;BME280;33471;52.104;1.318;2023-02-19T06:33:54;101984.38;;;8.42;56.07
47706;BME280;33471;52.104;1.318;2023-02-19T06:36:22;101988.61;;;8.29;55.11
47706;BME280;33471;52.104;1.318;2023-02-19T06:38:50;101994.51;;;8.28;56.04
47706;BME280;33471;52.104;1.318;2023-02-19T06:41:17;102000.37;;;7.85;56.36
47706;BME280;33471;52.104;1.318;2023-02-19T06:43:44;102004.95;;;8.51;55.11
47706;BME280;33471;52.104;1.318;2023-02-19T06:46:12;102001.48;;;8.00;55.47
47706;BME280;33471;52.104;1.318;2023-02-19T06:48:40;102012.67;;;8.58;55.07
47706;BME280;33471;52.104;1.318;2023-02-19T06:51:10;102023.08;;;7.46;56.34
47706;BME280;33471;52.104;1.318;2023-02-19T06:53:38;102022.09;;;7.66;55.11
47706;BME280;33471;52.104;1.318;2023-02-19T06:56:19;102031.29;;;7.86;54.64
47706;BME280;33471;52.104;1.318;2023-02-19T06:58:48;102032.63;;;8.19;53.01
47706;BME280;33471;52.104;1.318;2023-02-19T07:01:15;102035.45;;;9.05;51.82
47706;BME280;33471;52.104;1.318;2023-02-19T07:03:42;102045.06;;;8.43;52.97
47706;BME280;33471;52.104;1.318;2023-02-19T07:06:10;102052.54;;;7.98;53.32
47706;BME280;33471;52.104;1.318;2023-02-19T07:08:37;102056.47;;;7.87;53.08
47706;BME280;33471;52.104;1.318;2023-02-19T07:11:04;102062.72;;;8.45;52.12
47706;BME280;33471;52.104;1.318;2023-02-19T07:13:32;102068.19;;;7.52;54.31
47706;BME280;33471;52.104;1.318;2023-02-19T07:16:00;102073.17;;;7.44;54.16
47706;BME280;33471;52.104;1.318;2023-02-19T07:18:29;102079.84;;;7.23;55.20
47706;BME280;33471;52.104;1.318;2023-02-19T07:21:02;102079.33;;;7.41;54.51
47706;BME280;33471;52.104;1.318;2023-02-19T07:23:29;102096.07;;;6.54;56.64
47706;BME280;33471;52.104;1.318;2023-02-19T07:25:57;102091.96;;;7.18;54.49
47706;BME280;33471;52.104;1.318;2023-02-19T07:28:25;102104.42;;;6.57;56.64
47706;BME280;33471;52.104;1.318;2023-02-19T07:30:53;102108.19;;;6.66;56.13
47706;BME280;33471;52.104;1.318;2023-02-19T07:33:20;102120.30;;;6.81;56.00
47706;BME280;33471;52.104;1.318;2023-02-19T07:35:48;102135.18;;;6.58;56.29
47706;BME280;33471;52.104;1.318;2023-02-19T07:38:17;102142.52;;;6.94;55.49
47706;BME280;33471;52.104;1.318;2023-02-19T07:40:50;102148.62;;;6.06;57.40
47706;BME280;33471;52.104;1.318;2023-02-19T07:43:18;102155.70;;;6.58;56.27
47706;BME280;33471;52.104;1.318;2023-02-19T07:45:45;102164.61;;;6.22;57.12
47706;BME280;33471;52.104;1.318;2023-02-19T07:48:13;102158.65;;;7.04;54.50
47706;BME280;33471;52.104;1.318;2023-02-19T07:50:41;102159.17;;;6.84;55.23
47706;BME280;33471;52.104;1.318;2023-02-19T07:53:09;102172.33;;;6.77;55.10
47706;BME280;33471;52.104;1.318;2023-02-19T07:55:36;102170.70;;;7.92;52.68
47706;BME280;33471;52.104;1.318;2023-02-19T07:58:03;102177.39;;;7.27;54.09
47706;BME280;33471;52.104;1.318;2023-02-19T08:00:30;102176.42;;;7.33;53.48
47706;BME280;33471;52.104;1.318;2023-02-19T08:02:58;102179.04;;;7.01;54.86
47706;BME280;33471;52.104;1.318;2023-02-19T08:05:25;102176.38;;;7.25;53.48
47706;BME280;33471;52.104;1.318;2023-02-19T08:07:53;102177.32;;;8.10;51.66
47706;BME280;33471;52.104;1.318;2023-02-19T08:10:20;102182.67;;;7.84;51.89
47706;BME280;33471;52.104;1.318;2023-02-19T08:12:54;102195.55;;;6.96;53.67
47706;BME280;33471;52.104;1.318;2023-02-19T08:15:22;102195.54;;;6.58;54.26
47706;BME280;33471;52.104;1.318;2023-02-19T08:17:49;102187.54;;;6.93;54.41
47706;BME280;33471;52.104;1.318;2023-02-19T08:20:16;102188.08;;;6.48;55.30
47706;BME280;33471;52.104;1.318;2023-02-19T08:22:43;102179.26;;;7.60;53.52
47706;BME280;33471;52.104;1.318;2023-02-19T08:25:10;102167.75;;;8.09;51.46
47706;BME280;33471;52.104;1.318;2023-02-19T08:27:37;102162.75;;;6.97;53.77
47706;BME280;33471;52.104;1.318;2023-02-19T08:30:05;102155.08;;;7.34;52.21
47706;BME280;33471;52.104;1.318;2023-02-19T08:32:33;102157.35;;;8.20;51.01
47706;BME280;33471;52.104;1.318;2023-02-19T08:35:00;102164.06;;;7.82;51.66
47706;BME280;33471;52.104;1.318;2023-02-19T08:37:27;102159.23;;;8.68;49.72
47706;BME280;33471;52.104;1.318;2023-02-19T08:39:54;102159.14;;;7.08;52.62
47706;BME280;33471;52.104;1.318;2023-02-19T08:42:21;102161.20;;;7.38;53.38
47706;BME280;33471;52.104;1.318;2023-02-19T08:44:48;102172.20;;;7.74;52.08
47706;BME280;33471;52.104;1.318;2023-02-19T08:47:15;102176.95;;;8.36;50.22
47706;BME280;33471;52.104;1.318;2023-02-19T08:49:43;102182.33;;;7.59;52.07
47706;BME280;33471;52.104;1.318;2023-02-19T08:52:10;102180.75;;;7.59;51.25
47706;BME280;33471;52.104;1.318;2023-02-19T08:54:37;102199.93;;;6.77;53.97
47706;BME280;33471;52.104;1.318;2023-02-19T08:57:04;102207.12;;;6.92;54.43
47706;BME280;33471;52.104;1.318;2023-02-19T08:59:32;102212.28;;;7.16;53.31
47706;BME280;33471;52.104;1.318;2023-02-19T09:01:59;102213.07;;;8.15;52.23
47706;BME280;33471;52.104;1.318;2023-02-19T09:04:26;102216.74;;;7.94;52.26
47706;BME280;33471;52.104;1.318;2023-02-19T09:06:53;102232.84;;;7.43;53.68
47706;BME280;33471;52.104;1.318;2023-02-19T09:09:20;102239.14;;;6.59;55.42
47706;BME280;33471;52.104;1.318;2023-02-19T09:11:47;102239.35;;;7.92;52.71
47706;BME280;33471;52.104;1.318;2023-02-19T09:14:14;102244.87;;;7.40;52.78
47706;BME280;33471;52.104;1.318;2023-02-19T09:16:41;102244.27;;;7.69;52.60
47706;BME280;33471;52.104;1.318;2023-02-19T09:19:09;102250.33;;;7.73;52.38
47706;BME280;33471;52.104;1.318;2023-02-19T09:21:36;102263.87;;;7.53;53.55
47706;BME280;33471;52.104;1.318;2023-02-19T09:24:04;102269.08;;;7.95;52.73
47706;BME280;33471;52.104;1.318;2023-02-19T09:26:34;102267.72;;;7.96;52.36
47706;BME280;33471;52.104;1.318;2023-02-19T09:29:01;102268.65;;;7.83;52.66
47706;BME280;33471;52.104;1.318;2023-02-19T09:31:28;102275.11;;;7.45;53.75
47706;BME280;33471;52.104;1.318;2023-02-19T09:33:55;102274.82;;;7.89;52.51
47706;BME280;33471;52.104;1.318;2023-02-19T09:36:22;102282.97;;;7.27;54.61
47706;BME280;33471;52.104;1.318;2023-02-19T09:38:50;102283.21;;;7.18;54.24
47706;BME280;33471;52.104;1.318;2023-02-19T09:41:22;102294.23;;;7.45;53.18
47706;BME280;33471;52.104;1.318;2023-02-19T09:43:52;102292.34;;;7.68;52.89
47706;BME280;33471;52.104;1.318;2023-02-19T09:46:27;102295.77;;;7.97;51.74
47706;BME280;33471;52.104;1.318;2023-02-19T09:49:00;102295.58;;;8.72;51.16
47706;BME280;33471;52.104;1.318;2023-02-19T09:51:30;102296.76;;;8.55;50.24
47706;BME280;33471;52.104;1.318;2023-02-19T09:53:59;102306.41;;;8.23;51.78
47706;BME280;33471;52.104;1.318;2023-02-19T09:56:28;102319.88;;;7.99;52.73
47706;BME280;33471;52.104;1.318;2023-02-19T09:58:57;102321.76;;;7.21;54.27
47706;BME280;33471;52.104;1.318;2023-02-19T10:01:29;102318.29;;;7.78;52.74
47706;BME280;33471;52.104;1.318;2023-02-19T10:03:58;102313.20;;;8.58;51.57
47706;BME280;33471;52.104;1.318;2023-02-19T10:06:27;102321.00;;;7.95;52.38
47706;BME280;33471;52.104;1.318;2023-02-19T10:09:04;102312.63;;;8.09;51.70
47706;BME280;33471;52.104;1.318;2023-02-19T10:11:36;102313.79;;;8.42;51.97
47706;BME280;33471;52.104;1.318;2023-02-19T10:14:09;102310.60;;;8.99;50.32
47706;BME280;33471;52.104;1.318;2023-02-19T10:16:41;102317.56;;;8.94;49.29
47706;BME280;33471;52.104;1.318;2023-02-19T10:19:09;102307.78;;;8.36;50.72
47706;BME280;33471;52.104;1.318;2023-02-19T10:21:38;102306.19;;;8.03;52.94
47706;BME280;33471;52.104;1.318;2023-02-19T10:24:06;102318.51;;;8.08;52.40
47706;BME280;33471;52.104;1.318;2023-02-19T10:26:34;102327.36;;;7.04;55.16
47706;BME280;33471;52.104;1.318;2023-02-19T10:29:01;102328.31;;;7.28;54.89
47706;BME280;33471;52.104;1.318;2023-02-19T10:31:30;102330.97;;;7.85;53.34
47706;BME280;33471;52.104;1.318;2023-02-19T10:33:59;102340.87;;;8.41;51.51
47706;BME280;33471;52.104;1.318;2023-02-19T10:36:28;102351.21;;;8.12;52.66
47706;BME280;33471;52.104;1.318;2023-02-19T10:38:58;102355.10;;;8.25;52.53
47706;BME280;33471;52.104;1.318;2023-02-19T10:41:27;102350.39;;;8.88;50.45
47706;BME280;33471;52.104;1.318;2023-02-19T10:43:59;102355.37;;;9.03;50.47
47706;BME280;33471;52.104;1.318;2023-02-19T10:46:32;102369.28;;;8.30;51.90
47706;BME280;33471;52.104;1.318;2023-02-19T10:49:03;102354.70;;;8.46;51.22
47706;BME280;33471;52.104;1.318;2023-02-19T10:51:34;102361.94;;;8.13;52.60
47706;BME280;33471;52.104;1.318;2023-02-19T10:54:05;102361.71;;;9.05;50.30
47706;BME280;33471;52.104;1.318;2023-02-19T10:56:33;102375.84;;;9.36;49.32
47706;BME280;33471;52.104;1.318;2023-02-19T10:59:19;102374.10;;;9.11;49.65
47706;BME280;33471;52.104;1.318;2023-02-19T11:01:53;102377.32;;;9.34;49.57
47706;BME280;33471;52.104;1.318;2023-02-19T11:04:21;102372.56;;;8.90;50.20
47706;BME280;33471;52.104;1.318;2023-02-19T11:06:49;102363.05;;;9.00;49.46
47706;BME280;33471;52.104;1.318;2023-02-19T11:09:25;102368.30;;;8.86;49.10
47706;BME280;33471;52.104;1.318;2023-02-19T11:11:55;102362.93;;;9.01;51.05
47706;BME280;33471;52.104;1.318;2023-02-19T11:14:24;102363.35;;;9.06;49.28
47706;BME280;33471;52.104;1.318;2023-02-19T11:16:53;102364.10;;;8.64;50.07
47706;BME280;33471;52.104;1.318;2023-02-19T11:19:24;102366.05;;;9.38;48.74
47706;BME280;33471;52.104;1.318;2023-02-19T11:21:53;102358.32;;;9.36;48.71
47706;BME280;33471;52.104;1.318;2023-02-19T11:24:25;102369.68;;;9.24;49.64
47706;BME280;33471;52.104;1.318;2023-02-19T11:26:55;102365.41;;;8.76;50.24
47706;BME280;33471;52.104;1.318;2023-02-19T11:29:24;102366.32;;;8.91;50.27
47706;BME280;33471;52.104;1.318;2023-02-19T11:31:51;102357.79;;;8.50;50.69
47706;BME280;33471;52.104;1.318;2023-02-19T11:34:26;102341.46;;;8.99;49.81
47706;BME280;33471;52.104;1.318;2023-02-19T11:37:10;102343.06;;;8.92;49.61
47706;BME280;33471;52.104;1.318;2023-02-19T11:39:39;102352.78;;;8.94;50.04
47706;BME280;33471;52.104;1.318;2023-02-19T11:42:19;102353.25;;;9.45;48.81
47706;BME280;33471;52.104;1.318;2023-02-19T11:45:05;102353.60;;;9.46;47.98
47706;BME280;33471;52.104;1.318;2023-02-19T11:47:50;102357.75;;;9.15;48.99
47706;BME280;33471;52.104;1.318;2023-02-19T11:50:26;102356.54;;;9.65;48.57
47706;BME280;33471;52.104;1.318;2023-02-19T11:53:09;102360.11;;;8.92;50.13
47706;BME280;33471;52.104;1.318;2023-02-19T11:55:52;102374.29;;;8.07;51.66
47706;BME280;33471;52.104;1.318;2023-02-19T11:58:38;102370.33;;;8.38;50.60
47706;BME280;33471;52.104;1.318;2023-02-19T12:01:16;102367.38;;;9.42;49.62
47706;BME280;33471;52.104;1.318;2023-02-19T12:04:03;102363.75;;;9.27;48.55
47706;BME280;33471;52.104;1.318;2023-02-19T12:06:37;102370.69;;;8.94;48.95
47706;BME280;33471;52.104;1.318;2023-02-19T12:09:22;102390.37;;;7.97;51.06
47706;BME280;33471;52.104;1.318;2023-02-19T12:12:06;102382.00;;;9.07;49.28
47706;BME280;33471;52.104;1.318;2023-02-19T12:14:47;102377.32;;;9.17;48.31
47706;BME280;33471;52.104;1.318;2023-02-19T12:17:39;102373.83;;;9.34;46.97
47706;BME280;33471;52.104;1.318;2023-02-19T12:20:18;102377.22;;;8.64;48.23
47706;BME280;33471;52.104;1.318;2023-02-19T12:22:56;102367.05;;;9.77;46.11
47706;BME280;33471;52.104;1.318;2023-02-19T12:25:39;102373.09;;;9.98;45.39
47706;BME280;33471;52.104;1.318;2023-02-19T12:28:32;102379.35;;;9.96;44.27
47706;BME280;33471;52.104;1.318;2023-02-19T12:31:20;102379.43;;;9.55;45.52
47706;BME280;33471;52.104;1.318;2023-02-19T12:34:19;102363.68;;;9.92;45.49
47706;BME280;33471;52.104;1.318;2023-02-19T12:37:01;102357.68;;;9.14;48.52
47706;BME280;33471;52.104;1.318;2023-02-19T12:39:38;102345.57;;;9.64;46.60
47706;BME280;33471;52.104;1.318;2023-02-19T12:42:14;102346.89;;;9.67;46.08
47706;BME280;33471;52.104;1.318;2023-02-19T12:44:47;102346.51;;;9.53;45.30
47706;BME280;33471;52.104;1.318;2023-02-19T12:47:20;102350.95;;;9.11;45.49
47706;BME280;33471;52.104;1.318;2023-02-19T12:49:57;102346.22;;;9.49;45.32
47706;BME280;33471;52.104;1.318;2023-02-19T12:52:31;102344.50;;;9.37;45.26
47706;BME280;33471;52.104;1.318;2023-02-19T12:55:06;102345.51;;;9.72;44.60
47706;BME280;33471;52.104;1.318;2023-02-19T12:57:39;102349.29;;;9.84;44.55
47706;BME280;33471;52.104;1.318;2023-02-19T13:00:22;102342.93;;;10.18;43.81
47706;BME280;33471;52.104;1.318;2023-02-19T13:02:58;102337.88;;;9.99;43.60
47706;BME280;33471;52.104;1.318;2023-02-19T13:05:35;102345.08;;;10.85;42.41
47706;BME280;33471;52.104;1.318;2023-02-19T13:08:09;102367.49;;;10.95;42.88
47706;BME280;33471;52.104;1.318;2023-02-19T13:10:39;102365.86;;;9.65;45.41
47706;BME280;33471;52.104;1.318;2023-02-19T13:13:15;102374.10;;;9.89;44.15
47706;BME280;33471;52.104;1.318;2023-02-19T13:15:48;102378.52;;;9.93;44.50
47706;BME280;33471;52.104;1.318;2023-02-19T13:18:19;102376.65;;;9.51;44.62